Airfield :
LOGIN :

Register | Disclaimer

   EN    FR    IT 

 










Legend :    VFR   Marginal VFR   IFR   Intensive IFR   Very Intensive IFR
Visi :
Ceiling :
>= 8 km
>= 3000ft
5 to 8 km
1000 to 3000 ft
1500m to 5 km
500 to 1000 ft
800 to 1500m
200 to 500 ft
< 800m
< 200 ft
Symbols :   Thunderstorms  Fog  Heavy snow  Heavy precipitations  Wind > 20 kt
SIGMETs :     Misc.  Thunderstorms  Icing  Turbulence  Mountain Waves  Volcanic Ashes






- Airport Elevation : 147 ft
- IATA code : DUS


EDDL - Düsseldorf Int.

CURRENT METAR :
  • 181050Z 22013KT 9999 SHRA FEW014 SCT018CB BKN022 05/03 Q1024 BECMG NSW

EXPIRED METARs :
  • 181020Z 22013KT 9999 FEW015 SCT024 BKN030 05/03 Q1024 TEMPO SHRA BKN015CB
  • 180950Z 22012KT 9999 FEW010 BKN022 BKN030 05/03 Q1024 NOSIG
  • 180920Z 22012KT 9999 FEW010 SCT018 BKN022 05/03 Q1024 NOSIG
  • 180850Z 21011KT 9999 FEW010 BKN022 05/03 Q1024 NOSIG
  • 180820Z 22010KT 9999 FEW010 SCT018 BKN022 05/03 Q1023 NOSIG

TAF TAF EDDL
Valid from the 18 at 06:00 until the 19 at 12:00 UTC


180500Z 1806/1912 23010KT 9999 SCT025
PROB30
TEMPO 1813/1818 SHRAGS BKN020CB
BECMG 1815/1818 27005KT
BECMG 1907/1910 33006KT



MET'MAP, your aeronautical weather chart ! - Copyright ORBIFLY December 2007 - Disclaimer

ORBIFLY MET'MAP TEAM :

Programming & Development : Alexandra Zaïnal
Concept & original design : Baudouin d'Aumeries
Assistance for programming : Marc-Olivier Méhu
Technical & hardware support : Manuel Goepfert

Contact : metmap@orbifly.com




SOURCES & CREDITS :

   NOAA